Time;durP1;ratioP1;P1;durP2;ratioP2;P2;SDS_P1;SDS_P2;PMS_P1;PMS_P2;Temp;Humidity;BMP_temperature;BMP_pressure;BME280_temperature;BME280_humidity;BME280_pressure;Samples;Min_cycle;Max_cycle;Signal;HPM_P1;HPM_P2
2022/01/14 00:02:20;;;;;;;103.47;21.27;;;;;;;;;;4983776;28;108264;-68
2022/01/14 00:04:47;;;;;;;83.55;18.65;;;;;;;;;;4985889;28;107084;-68
2022/01/14 00:07:13;;;;;;;116.05;21.20;;;;;;;;;;4986958;28;108036;-69
2022/01/14 00:09:39;;;;;;;96.57;20.08;;;;;;;;;;4975744;28;107008;-67
2022/01/14 00:12:14;;;;;;;128.55;21.40;;;;;;;;;;4985921;28;105939;-66
2022/01/14 00:14:56;;;;;;;128.73;21.33;;;;;;;;;;4983099;28;106946;-67
2022/01/14 00:17:22;;;;;;;104.07;20.83;;;;;;;;;;4968966;28;106409;-66
2022/01/14 00:19:49;;;;;;;118.03;21.15;;;;;;;;;;4980189;28;106794;-66
2022/01/14 00:22:17;;;;;;;128.57;20.73;;;;;;;;;;4983943;28;106660;-67
2022/01/14 00:35:19;;;;;;;91.78;20.02;;;;;;;;;;4983007;28;109180;-69
2022/01/14 00:37:45;;;;;;;86.80;19.98;;;;;;;;;;4988979;28;105527;-69
2022/01/14 00:40:12;;;;;;;88.93;20.17;;;;;;;;;;4982290;28;107042;-66
2022/01/14 00:42:38;;;;;;;111.22;21.38;;;;;;;;;;4985779;28;107038;-66
2022/01/14 00:45:07;;;;;;;82.88;20.52;;;;;;;;;;4988369;28;106766;-66
2022/01/14 00:47:37;;;;;;;85.50;20.40;;;;;;;;;;4987434;28;107581;-66
2022/01/14 00:50:03;;;;;;;;;;;;;;;;;;4988545;28;107313;-67
2022/01/14 00:52:30;;;;;;;65.88;18.88;;;;;;;;;;4985944;28;136547;-66
2022/01/14 00:54:56;;;;;;;76.18;19.52;;;;;;;;;;4968732;28;111327;-66
2022/01/14 00:59:14;;;;;;;80.20;19.50;;;;;;;;;;4987560;28;106315;-66
2022/01/14 01:00:16;;;;;;;94.13;20.05;;;;;;;;;;4980976;28;107496;-67
2022/01/14 01:02:42;;;;;;;76.65;19.58;;;;;;;;;;4985461;28;106366;-67
2022/01/14 01:05:09;;;;;;;85.43;19.95;;;;;;;;;;4984400;28;105996;-67
2022/01/14 01:07:38;;;;;;;72.40;19.23;;;;;;;;;;4982895;28;107503;-67
2022/01/14 01:10:04;;;;;;;90.35;19.92;;;;;;;;;;4988343;28;106121;-67
2022/01/14 01:12:42;;;;;;;96.70;21.65;;;;;;;;;;4975853;28;106264;-67
2022/01/14 01:15:14;;;;;;;80.60;20.97;;;;;;;;;;4985972;28;107785;-67
2022/01/14 01:17:40;;;;;;;90.00;19.77;;;;;;;;;;4980662;28;106150;-67
2022/01/14 01:20:17;;;;;;;91.05;21.75;;;;;;;;;;4981824;28;107550;-67
2022/01/14 01:22:45;;;;;;;111.32;21.73;;;;;;;;;;4985993;28;106800;-67
2022/01/14 01:25:24;;;;;;;98.70;21.25;;;;;;;;;;4964036;28;107957;-66
2022/01/14 01:27:53;;;;;;;84.88;20.30;;;;;;;;;;4972350;28;108472;-67
2022/01/14 01:32:59;;;;;;;109.68;21.35;;;;;;;;;;4978861;28;107821;-67
2022/01/14 01:35:26;;;;;;;96.53;22.27;;;;;;;;;;4985684;28;106435;-67
2022/01/14 01:37:52;;;;;;;85.88;20.77;;;;;;;;;;4976092;28;106216;-67
2022/01/14 01:40:22;;;;;;;84.75;20.45;;;;;;;;;;4977616;28;107137;-67
2022/01/14 01:42:49;;;;;;;94.85;21.77;;;;;;;;;;4984622;28;106435;-66
2022/01/14 01:45:24;;;;;;;93.50;21.50;;;;;;;;;;4965296;28;107663;-66
2022/01/14 01:47:51;;;;;;;104.05;22.10;;;;;;;;;;4983742;28;106040;-66
2022/01/14 01:50:19;;;;;;;89.07;21.17;;;;;;;;;;4983556;28;107655;-66
2022/01/14 01:52:46;;;;;;;84.38;21.33;;;;;;;;;;4980487;28;106391;-67
2022/01/14 01:55:13;;;;;;;100.88;21.75;;;;;;;;;;4981906;28;107004;-67
2022/01/14 01:57:42;;;;;;;91.07;20.38;;;;;;;;;;4984586;28;106199;-67
2022/01/14 02:00:10;;;;;;;94.78;21.30;;;;;;;;;;4980514;28;107715;-68
2022/01/14 02:02:42;;;;;;;111.35;22.30;;;;;;;;;;4982408;28;107001;-68
2022/01/14 02:05:09;;;;;;;149.77;24.30;;;;;;;;;;4985867;28;107263;-68
2022/01/14 02:07:38;;;;;;;117.72;22.13;;;;;;;;;;4987445;28;106311;-67
2022/01/14 02:10:05;;;;;;;132.50;24.58;;;;;;;;;;4986039;28;106513;-68
2022/01/14 02:12:37;;;;;;;116.47;20.70;;;;;;;;;;4987904;28;106350;-67
2022/01/14 02:15:14;;;;;;;125.63;23.38;;;;;;;;;;4988669;28;106236;-67
2022/01/14 02:22:54;;;;;;;125.80;20.13;;;;;;;;;;4980997;28;107932;-66
2022/01/14 02:25:31;;;;;;;97.68;23.08;;;;;;;;;;4989642;28;106527;-68
2022/01/14 02:27:58;;;;;;;121.95;22.17;;;;;;;;;;4981642;28;107058;-67
2022/01/14 02:30:25;;;;;;;98.05;21.55;;;;;;;;;;4969960;28;109314;-67
2022/01/14 02:32:52;;;;;;;96.40;20.75;;;;;;;;;;4981377;28;106481;-67
2022/01/14 02:35:18;;;;;;;116.22;19.35;;;;;;;;;;4989117;28;108415;-67
2022/01/14 02:37:44;;;;;;;151.05;20.75;;;;;;;;;;4990017;28;105643;-67
2022/01/14 02:40:11;;;;;;;126.20;20.92;;;;;;;;;;4989303;28;107609;-67
2022/01/14 02:42:38;;;;;;;99.45;19.65;;;;;;;;;;4977601;28;108316;-68
2022/01/14 02:45:07;;;;;;;86.03;20.17;;;;;;;;;;4972399;28;107225;-67
2022/01/14 02:47:34;;;;;;;83.15;19.63;;;;;;;;;;4991467;28;106125;-67
2022/01/14 02:50:00;;;;;;;85.45;19.02;;;;;;;;;;4984791;28;106865;-67
2022/01/14 02:55:30;;;;;;;93.90;19.35;;;;;;;;;;4933543;28;107254;-67
2022/01/14 02:57:57;;;;;;;77.50;20.38;;;;;;;;;;4968214;28;107974;-68
2022/01/14 03:00:26;;;;;;;97.57;20.67;;;;;;;;;;4989202;28;107654;-68
2022/01/14 03:02:52;;;;;;;78.40;20.20;;;;;;;;;;4983703;28;107171;-67
2022/01/14 03:05:19;;;;;;;107.43;21.92;;;;;;;;;;4981642;28;106840;-67
2022/01/14 03:07:46;;;;;;;81.95;20.25;;;;;;;;;;4986374;28;106868;-67
2022/01/14 03:10:14;;;;;;;90.72;20.08;;;;;;;;;;4966797;28;107818;-67
2022/01/14 03:12:41;;;;;;;97.72;20.50;;;;;;;;;;4988903;28;106144;-67
2022/01/14 03:15:07;;;;;;;106.70;21.10;;;;;;;;;;4986981;28;107150;-69
2022/01/14 03:17:34;;;;;;;97.18;19.73;;;;;;;;;;4985321;28;107732;-66
2022/01/14 03:20:02;;;;;;;80.78;20.33;;;;;;;;;;4988918;28;106271;-67
2022/01/14 03:27:21;;;;;;;98.32;20.80;;;;;;;;;;4986471;28;107096;-67
2022/01/14 03:29:47;;;;;;;101.07;20.42;;;;;;;;;;4987830;28;109461;-67
2022/01/14 03:32:14;;;;;;;99.50;21.17;;;;;;;;;;4983977;28;106059;-68
2022/01/14 03:34:40;;;;;;;91.85;18.83;;;;;;;;;;4966596;28;107312;-67
2022/01/14 03:37:07;;;;;;;89.90;20.70;;;;;;;;;;4986078;28;107217;-69
2022/01/14 03:39:33;;;;;;;86.13;19.52;;;;;;;;;;4988997;28;106539;-67
2022/01/14 03:42:00;;;;;;;88.03;22.35;;;;;;;;;;4988432;28;106893;-67
2022/01/14 03:44:27;;;;;;;92.20;21.13;;;;;;;;;;4979920;28;106688;-67
2022/01/14 03:46:53;;;;;;;98.85;20.55;;;;;;;;;;4985811;28;109094;-67
2022/01/14 03:49:19;;;;;;;78.43;20.48;;;;;;;;;;4988858;28;106672;-67
2022/01/14 03:51:46;;;;;;;102.78;21.67;;;;;;;;;;4981139;28;107685;-67
2022/01/14 03:54:12;;;;;;;111.35;24.40;;;;;;;;;;4989044;28;106592;-67
2022/01/14 03:56:39;;;;;;;109.97;22.95;;;;;;;;;;4961841;28;107785;-67
2022/01/14 03:59:05;;;;;;;84.30;21.15;;;;;;;;;;4988762;28;106670;-67
2022/01/14 04:01:32;;;;;;;91.90;21.55;;;;;;;;;;4980315;28;108574;-67
2022/01/14 04:03:58;;;;;;;123.65;22.45;;;;;;;;;;4988432;28;106346;-67
2022/01/14 04:06:25;;;;;;;83.97;21.50;;;;;;;;;;4974808;28;105929;-67
2022/01/14 04:08:52;;;;;;;85.72;21.65;;;;;;;;;;4985687;28;106425;-67
2022/01/14 04:11:18;;;;;;;116.85;21.83;;;;;;;;;;4979510;28;105978;-67
2022/01/14 04:13:51;;;;;;;116.80;23.05;;;;;;;;;;4978709;28;106959;-68
2022/01/14 04:16:19;;;;;;;121.60;23.58;;;;;;;;;;4988743;28;107702;-67
2022/01/14 04:18:47;;;;;;;108.32;22.27;;;;;;;;;;4969512;28;106924;-67
2022/01/14 04:21:13;;;;;;;93.40;21.27;;;;;;;;;;4987272;28;105738;-69
2022/01/14 04:23:40;;;;;;;117.88;23.67;;;;;;;;;;4986896;28;107531;-68
2022/01/14 04:26:06;;;;;;;125.75;22.50;;;;;;;;;;4989553;28;106620;-67
2022/01/14 04:28:36;;;;;;;109.07;22.08;;;;;;;;;;4984890;28;106759;-67
2022/01/14 04:31:04;;;;;;;123.30;22.77;;;;;;;;;;4972236;28;106476;-68
2022/01/14 04:33:31;;;;;;;85.18;21.13;;;;;;;;;;4974811;28;106388;-67
2022/01/14 04:35:58;;;;;;;90.22;21.40;;;;;;;;;;4984166;28;110046;-67
2022/01/14 04:38:26;;;;;;;169.77;25.65;;;;;;;;;;4987842;28;106115;-68
2022/01/14 04:40:52;;;;;;;81.72;21.20;;;;;;;;;;4987129;28;107703;-67
2022/01/14 04:43:19;;;;;;;109.43;22.63;;;;;;;;;;4988564;28;106659;-68
2022/01/14 04:46:14;;;;;;;96.47;21.48;;;;;;;;;;4988003;28;106880;-68
2022/01/14 04:48:40;;;;;;;85.43;22.52;;;;;;;;;;4981516;28;107106;-68
2022/01/14 04:51:08;;;;;;;94.13;21.85;;;;;;;;;;4984549;28;107434;-70
2022/01/14 04:53:34;;;;;;;108.00;21.95;;;;;;;;;;4986005;28;106139;-69
2022/01/14 04:56:01;;;;;;;85.25;21.35;;;;;;;;;;4984176;28;106230;-67
2022/01/14 04:58:28;;;;;;;110.22;21.45;;;;;;;;;;4985160;28;107177;-67
2022/01/14 05:00:54;;;;;;;113.75;21.67;;;;;;;;;;4984032;28;106093;-69
2022/01/14 05:03:21;;;;;;;138.95;22.38;;;;;;;;;;4985702;28;107297;-66
2022/01/14 05:05:51;;;;;;;133.05;23.38;;;;;;;;;;4985461;28;106505;-66
2022/01/14 05:08:25;;;;;;;140.15;22.80;;;;;;;;;;4986885;28;107224;-69
2022/01/14 05:13:23;;;;;;;127.00;22.25;;;;;;;;;;4987267;28;106450;-69
2022/01/14 05:15:50;;;;;;;190.40;23.85;;;;;;;;;;4987098;28;107665;-66
2022/01/14 05:18:17;;;;;;;94.93;21.90;;;;;;;;;;4985337;28;106592;-66
2022/01/14 05:20:43;;;;;;;150.48;24.88;;;;;;;;;;4985289;28;107491;-68
2022/01/14 05:23:10;;;;;;;130.15;23.15;;;;;;;;;;4988235;28;107700;-69
2022/01/14 05:25:36;;;;;;;158.77;22.33;;;;;;;;;;4983206;28;106079;-68
2022/01/14 05:28:02;;;;;;;111.97;22.45;;;;;;;;;;4991198;28;107727;-68
2022/01/14 05:30:29;;;;;;;97.50;21.63;;;;;;;;;;4982448;28;105758;-66
2022/01/14 05:32:56;;;;;;;122.97;23.05;;;;;;;;;;4968467;28;106895;-66
2022/01/14 05:35:24;;;;;;;141.98;22.15;;;;;;;;;;4984997;28;106778;-67
2022/01/14 05:37:50;;;;;;;90.20;21.58;;;;;;;;;;4980645;28;106130;-66
2022/01/14 05:40:17;;;;;;;118.60;23.73;;;;;;;;;;4985709;28;108066;-67
2022/01/14 05:42:44;;;;;;;114.15;22.38;;;;;;;;;;4991459;28;106693;-66
2022/01/14 05:45:11;;;;;;;166.45;23.85;;;;;;;;;;4972633;28;106613;-66
2022/01/14 05:47:39;;;;;;;155.77;24.67;;;;;;;;;;4980231;28;106480;-69
2022/01/14 05:50:11;;;;;;;149.57;23.88;;;;;;;;;;4993448;28;108499;-66
2022/01/14 05:52:38;;;;;;;114.45;22.17;;;;;;;;;;4986980;28;106485;-66
2022/01/14 05:55:05;;;;;;;100.25;20.15;;;;;;;;;;4989208;28;107498;-66
2022/01/14 05:57:34;;;;;;;73.07;21.27;;;;;;;;;;4986154;28;105708;-66
2022/01/14 06:00:01;;;;;;;158.32;23.80;;;;;;;;;;4989147;28;106322;-68
2022/01/14 06:02:27;;;;;;;82.65;20.60;;;;;;;;;;4987191;28;107558;-68
2022/01/14 06:04:54;;;;;;;96.50;20.75;;;;;;;;;;4989677;28;107035;-68
2022/01/14 06:07:20;;;;;;;85.40;21.30;;;;;;;;;;4980299;28;106125;-68
2022/01/14 06:09:47;;;;;;;129.57;24.33;;;;;;;;;;4988357;28;107724;-68
2022/01/14 06:12:13;;;;;;;72.68;20.70;;;;;;;;;;4993612;28;106487;-70
2022/01/14 06:14:39;;;;;;;82.53;19.60;;;;;;;;;;4972440;28;106593;-68
2022/01/14 06:17:06;;;;;;;134.55;21.27;;;;;;;;;;4986394;28;106057;-68
2022/01/14 06:19:32;;;;;;;96.82;20.65;;;;;;;;;;4984334;28;107901;-68
2022/01/14 06:21:59;;;;;;;114.50;22.02;;;;;;;;;;4989231;28;106631;-68
2022/01/14 06:24:25;;;;;;;86.20;21.27;;;;;;;;;;4989907;28;106606;-68
2022/01/14 06:26:52;;;;;;;64.85;19.95;;;;;;;;;;4988815;28;106480;-68
2022/01/14 06:29:18;;;;;;;74.85;20.58;;;;;;;;;;4989954;28;106803;-68
2022/01/14 06:31:44;;;;;;;94.95;20.33;;;;;;;;;;4980276;28;106179;-68
2022/01/14 06:34:14;;;;;;;59.45;20.25;;;;;;;;;;4989612;28;106996;-68
2022/01/14 06:36:40;;;;;;;;;;;;;;;;;;4989764;28;106261;-68
2022/01/14 06:39:07;;;;;;;64.10;18.77;;;;;;;;;;4981009;28;136450;-70
2022/01/14 06:41:34;;;;;;;76.53;18.10;;;;;;;;;;4982351;28;107856;-68
2022/01/14 06:44:00;;;;;;;66.68;18.85;;;;;;;;;;4985614;28;106008;-68
2022/01/14 06:46:26;;;;;;;102.55;20.27;;;;;;;;;;4982130;28;105996;-68
2022/01/14 06:48:53;;;;;;;73.07;18.33;;;;;;;;;;4987131;28;107719;-68
2022/01/14 06:51:19;;;;;;;62.05;18.88;;;;;;;;;;4982333;28;106194;-68
2022/01/14 06:53:46;;;;;;;57.05;19.00;;;;;;;;;;4988444;28;107073;-68
2022/01/14 06:56:14;;;;;;;76.93;19.13;;;;;;;;;;4989406;28;106480;-66
2022/01/14 06:58:41;;;;;;;82.38;19.05;;;;;;;;;;4978624;28;106121;-68
2022/01/14 07:01:07;;;;;;;80.65;19.90;;;;;;;;;;4968944;28;109453;-70
2022/01/14 07:03:34;;;;;;;54.47;17.30;;;;;;;;;;4978927;28;105677;-68
2022/01/14 07:06:00;;;;;;;61.88;17.95;;;;;;;;;;4988007;28;105893;-68
2022/01/14 07:08:27;;;;;;;55.30;17.52;;;;;;;;;;4975811;28;107301;-67
2022/01/14 07:10:53;;;;;;;70.63;18.13;;;;;;;;;;4968483;28;106258;-67
2022/01/14 07:13:20;;;;;;;69.32;18.77;;;;;;;;;;4983196;28;107822;-68
2022/01/14 07:15:46;;;;;;;57.03;17.27;;;;;;;;;;4992849;28;108241;-68
2022/01/14 07:18:12;;;;;;;63.25;17.48;;;;;;;;;;4974943;28;106401;-68
2022/01/14 07:20:39;;;;;;;52.30;17.63;;;;;;;;;;4988536;28;107240;-66
2022/01/14 07:23:05;;;;;;;50.97;17.40;;;;;;;;;;4988335;28;105899;-68
2022/01/14 07:25:32;;;;;;;50.78;17.80;;;;;;;;;;4988633;28;106698;-68
2022/01/14 07:27:58;;;;;;;46.45;17.38;;;;;;;;;;4982581;28;107333;-68
2022/01/14 07:30:24;;;;;;;45.05;16.50;;;;;;;;;;4988715;28;106412;-69
2022/01/14 07:32:52;;;;;;;44.72;16.05;;;;;;;;;;4984628;28;107629;-68
2022/01/14 07:35:18;;;;;;;41.70;15.85;;;;;;;;;;4982638;28;106602;-66
2022/01/14 07:37:45;;;;;;;39.95;15.35;;;;;;;;;;4989968;28;105705;-67
2022/01/14 07:40:11;;;;;;;41.22;15.30;;;;;;;;;;4987301;28;106312;-66
2022/01/14 07:42:38;;;;;;;40.47;15.60;;;;;;;;;;4989985;28;107210;-68
2022/01/14 07:45:04;;;;;;;39.58;16.00;;;;;;;;;;4984016;28;106870;-68
2022/01/14 07:47:32;;;;;;;44.35;15.25;;;;;;;;;;4988118;28;106523;-68
2022/01/14 07:49:58;;;;;;;44.03;16.30;;;;;;;;;;4984858;28;106081;-68
2022/01/14 07:52:25;;;;;;;54.95;17.42;;;;;;;;;;4985454;28;106941;-68
2022/01/14 07:54:51;;;;;;;45.47;15.20;;;;;;;;;;4968564;28;108335;-67
2022/01/14 07:57:18;;;;;;;39.05;14.65;;;;;;;;;;4983664;28;106907;-68
2022/01/14 07:59:45;;;;;;;36.67;15.18;;;;;;;;;;4980744;28;106580;-68
2022/01/14 08:02:13;;;;;;;40.65;15.50;;;;;;;;;;4986175;28;105975;-68
2022/01/14 08:04:40;;;;;;;41.10;14.73;;;;;;;;;;4986892;28;106733;-68
2022/01/14 08:07:10;;;;;;;41.38;15.48;;;;;;;;;;4989783;28;107128;-68
2022/01/14 08:09:37;;;;;;;37.72;14.88;;;;;;;;;;4986481;28;105778;-69
2022/01/14 08:12:05;;;;;;;44.42;15.48;;;;;;;;;;4989988;28;106076;-68
2022/01/14 08:14:32;;;;;;;47.55;16.90;;;;;;;;;;4980219;28;106841;-68
2022/01/14 08:16:58;;;;;;;42.97;15.23;;;;;;;;;;4989214;28;105698;-68
2022/01/14 08:19:25;;;;;;;40.83;15.38;;;;;;;;;;4982263;28;106290;-68
2022/01/14 08:21:51;;;;;;;44.05;16.85;;;;;;;;;;4988250;28;106012;-67
2022/01/14 08:24:17;;;;;;;39.15;16.15;;;;;;;;;;4986968;28;107076;-68
2022/01/14 08:26:44;;;;;;;42.15;15.60;;;;;;;;;;4978938;28;106866;-68
2022/01/14 08:29:10;;;;;;;46.88;16.52;;;;;;;;;;4985285;28;106147;-68
2022/01/14 08:31:36;;;;;;;42.38;16.48;;;;;;;;;;4986483;28;106927;-68
2022/01/14 08:34:03;;;;;;;44.33;16.35;;;;;;;;;;4984483;28;107203;-68
2022/01/14 08:36:30;;;;;;;41.28;16.58;;;;;;;;;;4987080;28;105892;-68
2022/01/14 08:38:57;;;;;;;41.58;15.00;;;;;;;;;;4983385;28;106945;-68
2022/01/14 08:41:28;;;;;;;39.67;16.55;;;;;;;;;;4988915;28;108276;-69
2022/01/14 08:43:56;;;;;;;36.35;16.35;;;;;;;;;;4964756;28;109205;-68
2022/01/14 08:46:43;;;;;;;41.75;16.52;;;;;;;;;;4975048;28;106988;-68
2022/01/14 08:49:09;;;;;;;40.83;16.02;;;;;;;;;;4963094;28;106274;-68
2022/01/14 08:51:36;;;;;;;38.78;16.38;;;;;;;;;;4983310;28;106346;-68
2022/01/14 08:54:03;;;;;;;42.92;15.27;;;;;;;;;;4988647;28;107781;-68
2022/01/14 08:56:30;;;;;;;40.65;16.02;;;;;;;;;;4974477;28;106568;-67
2022/01/14 08:58:57;;;;;;;40.00;16.17;;;;;;;;;;4981021;28;106760;-67
2022/01/14 09:01:23;;;;;;;42.63;16.65;;;;;;;;;;4986605;28;107649;-70
2022/01/14 09:03:49;;;;;;;47.15;16.92;;;;;;;;;;4967298;28;107521;-67
2022/01/14 09:06:16;;;;;;;45.00;16.77;;;;;;;;;;4967201;28;110244;-68
2022/01/14 09:08:42;;;;;;;43.40;16.75;;;;;;;;;;4986120;28;106422;-70
2022/01/14 09:11:09;;;;;;;46.95;17.30;;;;;;;;;;4982385;28;106427;-66
2022/01/14 09:13:35;;;;;;;45.67;16.95;;;;;;;;;;4983941;28;106762;-66
2022/01/14 09:16:01;;;;;;;46.08;16.10;;;;;;;;;;4982243;28;106040;-66
2022/01/14 09:18:28;;;;;;;42.00;17.10;;;;;;;;;;4968239;28;107212;-66
2022/01/14 09:20:58;;;;;;;39.78;17.35;;;;;;;;;;4984389;28;107019;-66
2022/01/14 09:23:25;;;;;;;41.90;17.50;;;;;;;;;;4983452;28;106314;-67
2022/01/14 09:25:52;;;;;;;41.33;17.27;;;;;;;;;;4991762;28;107192;-67
2022/01/14 09:28:18;;;;;;;43.65;17.27;;;;;;;;;;4984365;28;106251;-67
2022/01/14 09:30:45;;;;;;;47.28;18.13;;;;;;;;;;4980231;28;106294;-66
2022/01/14 09:33:12;;;;;;;42.38;17.05;;;;;;;;;;4982437;28;106243;-67
2022/01/14 09:35:40;;;;;;;42.72;17.60;;;;;;;;;;4979456;28;106847;-69
2022/01/14 09:38:06;;;;;;;41.90;17.00;;;;;;;;;;4985564;28;106138;-68
2022/01/14 09:40:33;;;;;;;41.78;16.90;;;;;;;;;;4982844;28;107706;-66
2022/01/14 09:43:02;;;;;;;38.47;17.17;;;;;;;;;;4985728;28;107766;-67
2022/01/14 09:45:52;;;;;;;40.25;17.65;;;;;;;;;;4995677;28;106688;-68
2022/01/14 09:48:19;;;;;;;38.40;17.35;;;;;;;;;;4996982;28;106773;-67
2022/01/14 09:50:46;;;;;;;44.85;17.65;;;;;;;;;;4967129;28;108700;-67
2022/01/14 09:53:13;;;;;;;38.22;16.73;;;;;;;;;;4995255;28;106431;-67
2022/01/14 09:55:40;;;;;;;45.90;17.65;;;;;;;;;;4986385;28;106406;-67
2022/01/14 09:58:06;;;;;;;41.38;16.15;;;;;;;;;;4969333;28;107884;-67
2022/01/14 10:00:33;;;;;;;39.97;16.88;;;;;;;;;;4975362;28;107355;-68
2022/01/14 10:03:00;;;;;;;39.08;17.13;;;;;;;;;;4986374;28;107153;-68
2022/01/14 10:05:37;;;;;;;37.40;16.27;;;;;;;;;;4973852;28;106018;-70
2022/01/14 10:08:10;;;;;;;40.40;17.30;;;;;;;;;;4990818;28;107800;-68
2022/01/14 10:10:38;;;;;;;41.38;17.17;;;;;;;;;;4995378;28;106670;-69
2022/01/14 10:13:12;;;;;;;35.10;17.17;;;;;;;;;;4964410;28;109526;-68
2022/01/14 10:15:42;;;;;;;34.90;16.52;;;;;;;;;;4970615;28;106622;-69
2022/01/14 10:18:08;;;;;;;38.15;17.58;;;;;;;;;;4982278;28;106052;-69
2022/01/14 10:20:36;;;;;;;32.90;16.35;;;;;;;;;;4985071;28;106455;-68
2022/01/14 10:23:02;;;;;;;40.33;16.92;;;;;;;;;;4982967;28;106671;-70
2022/01/14 10:25:29;;;;;;;37.15;17.02;;;;;;;;;;4977672;28;106082;-68
2022/01/14 10:27:55;;;;;;;34.97;16.30;;;;;;;;;;4989989;28;106890;-69
2022/01/14 10:30:23;;;;;;;37.30;17.13;;;;;;;;;;4989597;28;106541;-70
2022/01/14 10:32:54;;;;;;;36.38;16.50;;;;;;;;;;4984551;28;107509;-68
2022/01/14 10:35:21;;;;;;;36.35;16.65;;;;;;;;;;4982666;28;107061;-68
2022/01/14 10:37:48;;;;;;;36.80;17.00;;;;;;;;;;4984071;28;107091;-69
2022/01/14 10:40:18;;;;;;;35.35;17.67;;;;;;;;;;4988859;28;107835;-70
2022/01/14 10:42:45;;;;;;;36.40;17.38;;;;;;;;;;4984409;28;107683;-68
2022/01/14 10:45:20;;;;;;;42.78;17.85;;;;;;;;;;4990409;28;105994;-66
2022/01/14 10:47:50;;;;;;;41.20;18.52;;;;;;;;;;4970934;28;107252;-66
2022/01/14 10:50:16;;;;;;;40.33;18.48;;;;;;;;;;4967545;28;106914;-74
2022/01/14 10:52:49;;;;;;;39.42;17.83;;;;;;;;;;4988107;28;106925;-67
2022/01/14 10:55:26;;;;;;;43.53;18.05;;;;;;;;;;4989187;28;105675;-69
2022/01/14 10:57:52;;;;;;;37.50;17.75;;;;;;;;;;4970838;28;106185;-66
2022/01/14 11:00:42;;;;;;;37.33;17.45;;;;;;;;;;4984867;28;106431;-71
2022/01/14 11:03:08;;;;;;;;;;;;;;;;;;4985648;28;106799;-71
2022/01/14 11:05:35;;;;;;;37.40;18.80;;;;;;;;;;4985634;28;135063;-66
2022/01/14 11:08:02;;;;;;;46.72;20.45;;;;;;;;;;4986958;28;108037;-67
2022/01/14 11:10:32;;;;;;;46.38;20.02;;;;;;;;;;4989240;28;107019;-68
2022/01/14 11:13:01;;;;;;;43.22;19.83;;;;;;;;;;4987409;28;107690;-68
2022/01/14 11:15:29;;;;;;;43.17;20.20;;;;;;;;;;4974438;28;108065;-71
2022/01/14 11:17:59;;;;;;;40.08;19.80;;;;;;;;;;4986627;28;107059;-79
2022/01/14 11:20:36;;;;;;;47.58;18.77;;;;;;;;;;4983143;28;107129;-72
2022/01/14 11:23:14;;;;;;;48.70;20.90;;;;;;;;;;4977368;28;105968;-67
2022/01/14 11:25:55;;;;;;;38.95;18.73;;;;;;;;;;4971551;28;108401;-70
2022/01/14 11:28:41;;;;;;;38.78;17.67;;;;;;;;;;4984912;28;107292;-68
2022/01/14 11:31:23;;;;;;;42.25;18.05;;;;;;;;;;4987094;28;106322;-69
2022/01/14 11:33:50;;;;;;;44.28;21.35;;;;;;;;;;4971759;28;108257;-67
2022/01/14 11:36:17;;;;;;;45.20;19.58;;;;;;;;;;4976554;28;107657;-67
2022/01/14 11:38:44;;;;;;;36.65;18.50;;;;;;;;;;4984502;28;106567;-67
2022/01/14 11:41:13;;;;;;;36.13;18.83;;;;;;;;;;4984502;28;106896;-68
2022/01/14 11:43:43;;;;;;;40.88;18.90;;;;;;;;;;4988444;28;107356;-71
2022/01/14 11:46:13;;;;;;;44.22;19.98;;;;;;;;;;4979337;28;106109;-71
2022/01/14 11:48:45;;;;;;;43.53;20.25;;;;;;;;;;4985434;28;107224;-68
2022/01/14 11:51:15;;;;;;;40.83;19.05;;;;;;;;;;4975860;28;106145;-76
2022/01/14 11:53:46;;;;;;;38.55;19.33;;;;;;;;;;4986596;28;108223;-67
2022/01/14 11:56:33;;;;;;;40.47;19.60;;;;;;;;;;4981593;28;107853;-68
2022/01/14 11:59:35;;;;;;;41.42;19.80;;;;;;;;;;4972029;28;106606;-66
2022/01/14 12:02:22;;;;;;;40.55;19.02;;;;;;;;;;4906150;28;107257;-71
2022/01/14 12:05:00;;;;;;;46.45;20.60;;;;;;;;;;4973936;28;108225;-68
2022/01/14 12:07:26;;;;;;;47.22;20.67;;;;;;;;;;4971547;28;107138;-66
2022/01/14 12:10:00;;;;;;;41.65;20.08;;;;;;;;;;4985788;28;106597;-65
2022/01/14 12:12:31;;;;;;;43.92;19.75;;;;;;;;;;4971014;28;107747;-65
2022/01/14 12:15:00;;;;;;;45.17;20.60;;;;;;;;;;4986984;28;106315;-65
2022/01/14 12:17:40;;;;;;;46.30;20.50;;;;;;;;;;4982861;28;106821;-68
2022/01/14 12:20:06;;;;;;;;;;;;;;;;;;4984916;28;107520;-69
2022/01/14 12:22:33;;;;;;;36.88;17.92;;;;;;;;;;4981668;28;135950;-71
2022/01/14 12:24:59;;;;;;;40.75;19.42;;;;;;;;;;4993217;28;106934;-66
2022/01/14 12:27:27;;;;;;;41.00;20.02;;;;;;;;;;4982775;28;108070;-66
2022/01/14 12:30:02;;;;;;;39.30;20.08;;;;;;;;;;4987996;28;107372;-64
2022/01/14 12:32:28;;;;;;;47.33;20.60;;;;;;;;;;4982680;28;106690;-71
2022/01/14 12:34:54;;;;;;;47.03;20.52;;;;;;;;;;4967497;28;107071;-71
2022/01/14 12:37:22;;;;;;;51.60;21.48;;;;;;;;;;4984050;28;106952;-67
2022/01/14 12:39:49;;;;;;;50.58;20.58;;;;;;;;;;4986889;28;106822;-67
2022/01/14 12:42:17;;;;;;;48.63;20.20;;;;;;;;;;4983801;28;106526;-67
2022/01/14 12:44:45;;;;;;;45.58;20.08;;;;;;;;;;4986194;28;107699;-66
2022/01/14 12:47:19;;;;;;;45.30;21.48;;;;;;;;;;4985765;28;106229;-66
2022/01/14 12:49:47;;;;;;;42.15;21.30;;;;;;;;;;4981020;28;107427;-66
2022/01/14 12:52:16;;;;;;;40.60;20.13;;;;;;;;;;4965333;28;106422;-66
2022/01/14 12:54:43;;;;;;;45.67;21.38;;;;;;;;;;4985001;28;106365;-64
2022/01/14 12:57:13;;;;;;;49.75;21.92;;;;;;;;;;4985230;28;106440;-65
2022/01/14 12:59:41;;;;;;;41.65;22.02;;;;;;;;;;4985310;28;105751;-65
2022/01/14 13:02:07;;;;;;;48.03;21.85;;;;;;;;;;4985503;28;107240;-66
2022/01/14 13:04:34;;;;;;;48.42;21.27;;;;;;;;;;4969062;28;107223;-65
2022/01/14 13:07:02;;;;;;;44.22;20.15;;;;;;;;;;4978121;28;106369;-66
2022/01/14 13:09:30;;;;;;;47.88;20.50;;;;;;;;;;4986429;28;107585;-66
2022/01/14 13:12:10;;;;;;;46.20;21.23;;;;;;;;;;4984279;28;106852;-65
2022/01/14 13:14:45;;;;;;;45.92;20.45;;;;;;;;;;4968587;28;107436;-67
2022/01/14 13:17:15;;;;;;;52.95;21.10;;;;;;;;;;4985653;28;106793;-66
2022/01/14 13:19:43;;;;;;;43.05;19.48;;;;;;;;;;4984594;28;106542;-65
2022/01/14 13:22:13;;;;;;;48.47;21.30;;;;;;;;;;4985235;28;108172;-65
2022/01/14 13:24:40;;;;;;;43.38;20.83;;;;;;;;;;4980134;28;107368;-65
2022/01/14 13:27:23;;;;;;;51.05;22.70;;;;;;;;;;4965089;28;106082;-66
2022/01/14 13:29:50;;;;;;;52.10;21.27;;;;;;;;;;4990101;28;107409;-65
2022/01/14 13:32:21;;;;;;;44.42;21.10;;;;;;;;;;4982893;28;106108;-65
2022/01/14 13:34:53;;;;;;;43.60;19.40;;;;;;;;;;4985268;28;106911;-66
2022/01/14 13:37:20;;;;;;;40.75;20.38;;;;;;;;;;4966794;28;107340;-68
2022/01/14 13:40:19;;;;;;;50.72;21.52;;;;;;;;;;4979816;28;106601;-69
2022/01/14 13:43:04;;;;;;;46.70;20.93;;;;;;;;;;4950998;28;106455;-69
2022/01/14 13:45:30;;;;;;;48.92;21.00;;;;;;;;;;4984891;28;107901;-66
2022/01/14 13:48:26;;;;;;;51.50;22.17;;;;;;;;;;4976336;28;107047;-67
2022/01/14 13:51:02;;;;;;;47.97;21.15;;;;;;;;;;4968074;28;106898;-66
2022/01/14 13:53:33;;;;;;;48.15;21.10;;;;;;;;;;4987899;28;107403;-66
2022/01/14 13:56:12;;;;;;;51.60;22.38;;;;;;;;;;4976307;28;107261;-65
2022/01/14 13:58:45;;;;;;;54.20;23.13;;;;;;;;;;4985190;28;107718;-65
2022/01/14 14:01:12;;;;;;;57.92;22.55;;;;;;;;;;4988416;28;107872;-67
2022/01/14 14:04:31;;;;;;;48.83;22.58;;;;;;;;;;4978839;28;107267;-66
2022/01/14 14:06:46;;;;;;;60.65;23.80;;;;;;;;;;4976119;28;109472;-66
2022/01/14 14:09:25;;;;;;;56.05;24.02;;;;;;;;;;4963218;28;107919;-68
2022/01/14 14:12:08;;;;;;;55.70;22.42;;;;;;;;;;4987175;28;107953;-66
2022/01/14 14:17:20;;;;;;;54.38;23.15;;;;;;;;;;4966891;28;106142;-65
2022/01/14 14:19:54;;;;;;;63.03;24.27;;;;;;;;;;4980238;28;107356;-68
2022/01/14 14:22:20;;;;;;;54.05;24.65;;;;;;;;;;4975867;28;108858;-67
2022/01/14 14:24:53;;;;;;;63.03;24.20;;;;;;;;;;4990212;28;107188;-65
2022/01/14 14:27:20;;;;;;;57.60;23.67;;;;;;;;;;4984878;28;106273;-65
2022/01/14 14:29:48;;;;;;;53.75;23.63;;;;;;;;;;4983704;28;106290;-66
2022/01/14 14:32:21;;;;;;;51.72;22.20;;;;;;;;;;4983114;28;106792;-66
2022/01/14 14:34:48;;;;;;;56.05;22.73;;;;;;;;;;4976800;28;107843;-65
2022/01/14 14:37:14;;;;;;;54.80;23.08;;;;;;;;;;4989678;28;107279;-68
2022/01/14 14:39:41;;;;;;;56.22;23.75;;;;;;;;;;4990205;28;105954;-66
2022/01/14 14:42:07;;;;;;;64.90;24.38;;;;;;;;;;4968747;28;106767;-68
2022/01/14 14:44:33;;;;;;;58.67;23.92;;;;;;;;;;4990213;28;106774;-66
2022/01/14 14:47:00;;;;;;;62.03;24.73;;;;;;;;;;4977518;28;107789;-66